Time;durP1;ratioP1;P1;durP2;ratioP2;P2;SDS_P1;SDS_P2;PMS_P1;PMS_P2;Temp;Humidity;BMP_temperature;BMP_pressure;BME280_temperature;BME280_humidity;BME280_pressure;Samples;Min_cycle;Max_cycle;Signal;HPM_P1;HPM_P2
2024/01/01 00:00:58;;;;;;;12.23;4.47;;;8.20;99.90;;;;;;5053842;28;20600;-47
2024/01/01 00:03:23;;;;;;;10.77;3.93;;;8.20;99.90;;;;;;5053723;28;20175;-48
2024/01/01 00:05:49;;;;;;;11.27;4.13;;;8.20;99.90;;;;;;5053728;28;20668;-46
2024/01/01 00:08:16;;;;;;;7.77;2.93;;;8.10;99.90;;;;;;5053729;28;20266;-47
2024/01/01 00:10:44;;;;;;;11.00;3.60;;;8.10;99.90;;;;;;5053247;28;20232;-48
2024/01/01 00:13:11;;;;;;;9.40;3.97;;;8.10;99.90;;;;;;5062715;28;20214;-48
2024/01/01 00:15:37;;;;;;;6.27;2.27;;;8.00;99.90;;;;;;5055606;28;20194;-48
2024/01/01 00:18:03;;;;;;;7.27;1.87;;;8.10;99.90;;;;;;5073597;28;20298;-47
2024/01/01 00:20:30;;;;;;;6.17;2.37;;;8.10;99.90;;;;;;5073395;28;20236;-47
2024/01/01 00:22:56;;;;;;;13.00;3.17;;;8.10;99.90;;;;;;5073436;28;20186;-48
2024/01/01 00:25:22;;;;;;;6.43;2.30;;;8.20;99.90;;;;;;5043969;28;20280;-48
2024/01/01 00:27:47;;;;;;;7.33;2.23;;;8.20;99.90;;;;;;5053271;28;20186;-48
2024/01/01 00:30:16;;;;;;;6.53;2.00;;;8.20;99.90;;;;;;5063817;28;20223;-47
2024/01/01 00:32:48;;;;;;;8.50;2.40;;;8.20;99.90;;;;;;5073084;28;20195;-48
2024/01/01 00:38:44;;;;;;;7.10;2.33;;;8.20;99.90;;;;;;5063252;28;20191;-47
2024/01/01 00:41:17;;;;;;;5.23;1.40;;;8.30;99.90;;;;;;5055518;28;20680;-47
2024/01/01 00:43:43;;;;;;;8.00;1.83;;;8.30;99.90;;;;;;5056151;28;20186;-46
2024/01/01 00:46:10;;;;;;;6.30;2.00;;;8.20;99.90;;;;;;5055930;28;20182;-47
2024/01/01 00:48:36;;;;;;;6.03;1.60;;;8.20;99.90;;;;;;5053665;28;20189;-47
2024/01/01 00:51:05;;;;;;;12.50;1.80;;;8.20;99.90;;;;;;5053131;28;20198;-47
2024/01/01 00:53:31;;;;;;;8.33;2.27;;;8.30;99.90;;;;;;5053597;28;20545;-47
2024/01/01 00:55:58;;;;;;;6.07;1.83;;;8.30;99.90;;;;;;5035478;28;20233;-48
2024/01/01 00:58:24;;;;;;;6.33;2.67;;;8.30;99.90;;;;;;5053240;28;20173;-46
2024/01/01 01:00:50;;;;;;;16.07;2.03;;;8.30;99.90;;;;;;5035393;28;20200;-46
2024/01/01 01:03:16;;;;;;;7.83;1.93;;;8.30;99.90;;;;;;5054665;28;20212;-47
2024/01/01 01:05:44;;;;;;;8.17;1.93;;;8.30;99.90;;;;;;5057010;28;20525;-47
2024/01/01 01:08:10;;;;;;;5.57;1.87;;;8.30;99.90;;;;;;5039755;28;20272;-47
2024/01/01 01:10:39;;;;;;;8.93;2.00;;;8.20;99.90;;;;;;5039094;28;20286;-47
2024/01/01 01:13:07;;;;;;;7.60;1.43;;;8.20;99.90;;;;;;5057402;28;20178;-48
2024/01/01 01:15:35;;;;;;;12.67;2.20;;;8.20;99.90;;;;;;5057022;28;20254;-47
2024/01/01 01:18:06;;;;;;;6.73;1.87;;;8.20;99.90;;;;;;5056208;28;20308;-47
2024/01/01 01:20:32;;;;;;;3.47;1.20;;;8.20;99.90;;;;;;5061393;28;20207;-48
2024/01/01 01:22:58;;;;;;;9.67;1.63;;;8.20;99.90;;;;;;5076739;28;20615;-49
2024/01/01 01:25:24;;;;;;;7.53;1.90;;;8.20;99.90;;;;;;5062469;28;20185;-47
2024/01/01 01:27:50;;;;;;;6.13;1.57;;;8.20;99.90;;;;;;5038583;28;20556;-48
2024/01/01 01:30:16;;;;;;;8.63;2.60;;;8.20;99.90;;;;;;5039388;28;20216;-50
2024/01/01 01:32:42;;;;;;;6.70;1.67;;;8.10;99.90;;;;;;5035718;28;20201;-48
2024/01/01 01:35:08;;;;;;;13.17;1.73;;;8.10;99.90;;;;;;5047299;28;20191;-48
2024/01/01 01:37:34;;;;;;;6.80;1.10;;;8.10;99.90;;;;;;5040833;28;20219;-48
2024/01/01 01:40:00;;;;;;;8.70;2.03;;;8.00;99.90;;;;;;5035313;28;20687;-48
2024/01/01 01:42:25;;;;;;;9.03;1.80;;;8.00;99.90;;;;;;5019040;28;20245;-48
2024/01/01 01:44:51;;;;;;;6.87;1.60;;;8.00;99.90;;;;;;5018846;28;20184;-48
2024/01/01 01:47:20;;;;;;;12.80;2.70;;;8.00;99.90;;;;;;5036639;28;20565;-49
2024/01/01 01:49:46;;;;;;;12.33;2.00;;;7.90;99.90;;;;;;5036570;28;20294;-48
2024/01/01 01:52:16;;;;;;;7.07;2.10;;;7.80;99.90;;;;;;5036556;28;20183;-47
2024/01/01 01:54:50;;;;;;;9.80;2.20;;;7.70;99.90;;;;;;5036508;28;20555;-49
2024/01/01 01:57:18;;;;;;;6.70;1.33;;;7.60;99.90;;;;;;5036525;28;20250;-48
2024/01/01 01:59:47;;;;;;;13.60;2.90;;;7.60;99.90;;;;;;5036211;28;20208;-48
2024/01/01 02:02:15;;;;;;;11.10;2.13;;;7.50;99.90;;;;;;5018920;28;20178;-47
2024/01/01 02:04:41;;;;;;;10.67;2.47;;;7.40;99.90;;;;;;5018932;28;20202;-46
2024/01/01 02:07:10;;;;;;;7.33;1.40;;;7.40;99.90;;;;;;5036205;28;20188;-47
2024/01/01 02:09:37;;;;;;;7.50;2.03;;;7.30;99.90;;;;;;5036393;28;20645;-48
2024/01/01 02:12:03;;;;;;;7.13;2.03;;;7.30;99.90;;;;;;5018916;28;20278;-47
2024/01/01 02:14:29;;;;;;;8.30;1.50;;;7.30;99.90;;;;;;5035373;28;20259;-47
2024/01/01 02:16:54;;;;;;;6.70;1.80;;;7.20;99.90;;;;;;5018496;28;20206;-47
2024/01/01 02:19:26;;;;;;;10.50;1.83;;;7.20;99.90;;;;;;5018291;28;20642;-47
2024/01/01 02:21:53;;;;;;;8.07;1.70;;;7.20;99.90;;;;;;5035511;28;20191;-49
2024/01/01 02:24:20;;;;;;;7.33;2.20;;;7.20;99.90;;;;;;5018584;28;20184;-47
2024/01/01 02:26:48;;;;;;;11.53;2.13;;;7.20;99.90;;;;;;5034261;28;20217;-48
2024/01/01 02:32:04;;;;;;;16.00;2.97;;;7.10;99.90;;;;;;5035838;28;20176;-49
2024/01/01 02:34:31;;;;;;;7.93;2.10;;;7.10;99.90;;;;;;5032808;28;20200;-47
2024/01/01 02:37:00;;;;;;;8.70;2.13;;;7.10;99.90;;;;;;5050152;28;20210;-48
2024/01/01 02:39:26;;;;;;;7.47;1.20;;;7.10;99.90;;;;;;5055257;28;20178;-47
2024/01/01 02:41:51;;;;;;;4.23;1.50;;;7.10;99.90;;;;;;5037600;28;20174;-48
2024/01/01 02:44:18;;;;;;;16.93;2.13;;;7.10;99.90;;;;;;5037722;28;20639;-47
2024/01/01 02:46:44;;;;;;;8.63;1.87;;;7.20;99.90;;;;;;5038001;28;20172;-49
2024/01/01 02:49:09;;;;;;;10.43;2.20;;;7.20;99.90;;;;;;5055337;28;20180;-47
2024/01/01 02:52:00;;;;;;;4.17;1.80;;;7.10;99.90;;;;;;5062153;28;20179;-47
2024/01/01 02:54:26;;;;;;;15.47;2.47;;;7.20;99.90;;;;;;5037246;28;20194;-47
2024/01/01 02:56:53;;;;;;;8.87;1.40;;;7.20;99.90;;;;;;5055170;28;20217;-48
2024/01/01 02:59:22;;;;;;;6.93;1.83;;;7.20;99.90;;;;;;5055090;28;20594;-47
2024/01/01 03:01:49;;;;;;;6.77;1.50;;;7.20;99.90;;;;;;5054952;28;20197;-49
2024/01/01 03:04:15;;;;;;;12.70;1.70;;;7.20;99.90;;;;;;5055229;28;20185;-47
2024/01/01 03:06:40;;;;;;;14.60;2.30;;;7.20;99.90;;;;;;5055129;28;20186;-48
2024/01/01 03:09:07;;;;;;;11.53;2.13;;;7.20;99.90;;;;;;5055454;28;20267;-47
2024/01/01 03:11:34;;;;;;;15.10;2.33;;;7.20;99.90;;;;;;5036637;28;20224;-47
2024/01/01 03:14:00;;;;;;;12.73;2.63;;;7.20;99.90;;;;;;5055040;28;20551;-49
2024/01/01 03:16:25;;;;;;;6.50;1.40;;;7.30;99.90;;;;;;5037593;28;20208;-49
2024/01/01 03:19:03;;;;;;;10.73;2.47;;;7.20;99.90;;;;;;5037342;28;20235;-49
2024/01/01 03:21:29;;;;;;;5.47;1.43;;;7.20;99.90;;;;;;5054742;28;20224;-49
2024/01/01 03:23:54;;;;;;;16.20;2.33;;;7.30;99.90;;;;;;5054484;28;20209;-47
2024/01/01 03:26:22;;;;;;;9.30;1.47;;;7.20;99.90;;;;;;5053811;28;20267;-48
2024/01/01 03:28:48;;;;;;;15.17;1.80;;;7.30;99.90;;;;;;5054697;28;20272;-48
2024/01/01 03:31:17;;;;;;;9.83;2.30;;;7.30;99.90;;;;;;5054342;28;20227;-47
2024/01/01 03:33:46;;;;;;;12.97;3.13;;;7.30;99.90;;;;;;5054900;28;20586;-49
2024/01/01 03:36:14;;;;;;;11.30;1.80;;;7.30;99.90;;;;;;5054063;28;20224;-48
2024/01/01 03:38:43;;;;;;;12.70;2.47;;;7.30;99.90;;;;;;5020805;28;20184;-48
2024/01/01 03:41:12;;;;;;;16.03;2.73;;;7.40;99.90;;;;;;5055116;28;20211;-48
2024/01/01 03:43:39;;;;;;;20.10;2.27;;;7.40;99.90;;;;;;5056290;28;20176;-48
2024/01/01 03:46:05;;;;;;;12.87;2.40;;;7.40;99.90;;;;;;5055159;28;20172;-48
2024/01/01 03:48:32;;;;;;;9.53;1.97;;;7.40;99.90;;;;;;5054291;28;20233;-48
2024/01/01 03:50:57;;;;;;;11.47;2.07;;;7.40;99.90;;;;;;5036389;28;20210;-47
2024/01/01 03:53:26;;;;;;;13.97;2.20;;;7.40;99.90;;;;;;5054549;28;20526;-47
2024/01/01 03:55:52;;;;;;;8.37;1.97;;;7.40;99.90;;;;;;5053787;28;20201;-47
2024/01/01 03:58:20;;;;;;;13.63;2.50;;;7.50;99.90;;;;;;5036114;28;20662;-47
2024/01/01 04:00:49;;;;;;;10.73;2.37;;;7.50;99.90;;;;;;5035765;28;20696;-47
2024/01/01 04:03:14;;;;;;;9.50;2.30;;;7.50;99.90;;;;;;5053964;28;20193;-47
2024/01/01 04:05:41;;;;;;;6.93;1.53;;;7.50;99.90;;;;;;5036272;28;20197;-48
2024/01/01 04:08:10;;;;;;;11.57;2.03;;;7.50;99.90;;;;;;5036165;28;20189;-49
2024/01/01 04:10:49;;;;;;;11.43;1.77;;;7.50;99.90;;;;;;5053553;28;20246;-47
2024/01/01 04:13:23;;;;;;;10.63;2.27;;;7.50;99.90;;;;;;5035450;28;20257;-47
2024/01/01 04:15:50;;;;;;;6.00;1.53;;;7.50;99.90;;;;;;5055586;28;20561;-47
2024/01/01 04:18:16;;;;;;;8.17;2.37;;;7.50;99.90;;;;;;5038981;28;20685;-47
2024/01/01 04:20:43;;;;;;;13.20;2.10;;;7.50;99.90;;;;;;5038737;28;20317;-47
2024/01/01 04:23:12;;;;;;;13.10;2.83;;;7.50;99.90;;;;;;5054631;28;20217;-47
2024/01/01 04:25:44;;;;;;;13.27;2.17;;;7.50;99.90;;;;;;5053831;28;20180;-47
2024/01/01 04:28:11;;;;;;;11.60;1.60;;;7.50;99.90;;;;;;5053657;28;20552;-48
2024/01/01 04:30:36;;;;;;;9.17;1.87;;;7.50;99.90;;;;;;5053450;28;20208;-48
2024/01/01 04:33:04;;;;;;;7.60;1.40;;;7.50;99.90;;;;;;5035895;28;20207;-48
2024/01/01 04:35:32;;;;;;;5.87;1.53;;;7.40;99.90;;;;;;5035611;28;20192;-47
2024/01/01 04:37:57;;;;;;;13.63;2.10;;;7.40;99.90;;;;;;5053433;28;20193;-47
2024/01/01 04:40:23;;;;;;;13.83;2.23;;;7.40;99.90;;;;;;5053558;28;20210;-47
2024/01/01 04:42:53;;;;;;;7.90;1.73;;;7.40;99.90;;;;;;5053364;28;20683;-46
2024/01/01 04:45:19;;;;;;;8.70;2.13;;;7.40;99.90;;;;;;5053213;28;20183;-47
2024/01/01 04:47:48;;;;;;;13.03;2.10;;;7.40;99.90;;;;;;5053317;28;20184;-47
2024/01/01 04:50:14;;;;;;;8.63;1.77;;;7.40;99.90;;;;;;5053391;28;20199;-47
2024/01/01 04:52:52;;;;;;;13.87;2.13;;;7.40;99.90;;;;;;5053311;28;20230;-46
2024/01/01 04:55:18;;;;;;;12.60;2.27;;;7.50;99.90;;;;;;5053708;28;20192;-47
2024/01/01 04:57:47;;;;;;;8.37;1.90;;;7.50;99.90;;;;;;5053277;28;20269;-47
2024/01/01 05:00:14;;;;;;;13.70;2.53;;;7.50;99.90;;;;;;5052785;28;20688;-47
2024/01/01 05:02:40;;;;;;;9.33;1.73;;;7.50;99.90;;;;;;5052612;28;20604;-46
2024/01/01 05:05:10;;;;;;;10.57;2.20;;;8.20;99.90;;;;;;5035734;28;20549;-48
2024/01/01 05:07:39;;;;;;;14.80;2.50;;;7.50;99.90;;;;;;5035431;28;20208;-46
2024/01/01 05:10:06;;;;;;;13.60;2.47;;;7.40;99.90;;;;;;5052905;28;20200;-48
2024/01/01 05:12:31;;;;;;;6.53;1.80;;;7.50;99.90;;;;;;5053218;28;20190;-48
2024/01/01 05:15:04;;;;;;;13.37;2.67;;;7.50;99.90;;;;;;5035131;28;20267;-47
2024/01/01 05:17:33;;;;;;;10.07;2.03;;;7.50;99.90;;;;;;5052805;28;20219;-48
2024/01/01 05:19:58;;;;;;;12.07;2.23;;;7.50;99.90;;;;;;5053113;28;20224;-47
2024/01/01 05:22:27;;;;;;;10.87;2.10;;;7.50;99.90;;;;;;5035041;28;20219;-48
2024/01/01 05:24:54;;;;;;;4.13;1.43;;;7.50;99.90;;;;;;5052947;28;20584;-47
2024/01/01 05:27:20;;;;;;;10.23;1.83;;;7.50;99.90;;;;;;5052427;28;20188;-48
2024/01/01 05:29:50;;;;;;;7.83;1.47;;;7.50;99.90;;;;;;5052621;28;20200;-48
2024/01/01 05:32:35;;;;;;;5.73;1.43;;;7.60;99.90;;;;;;5052345;28;20181;-47
2024/01/01 05:35:00;;;;;;;12.57;2.00;;;7.60;99.90;;;;;;5052501;28;20180;-46
2024/01/01 05:37:27;;;;;;;13.33;2.53;;;7.60;99.90;;;;;;5052392;28;20216;-47
2024/01/01 05:39:56;;;;;;;9.80;2.37;;;7.70;99.90;;;;;;5034823;28;20227;-48
2024/01/01 05:42:22;;;;;;;12.17;2.53;;;7.60;99.90;;;;;;5052494;28;20181;-48
2024/01/01 05:44:59;;;;;;;6.47;1.33;;;7.60;99.90;;;;;;5052528;28;20183;-48
2024/01/01 05:47:28;;;;;;;7.30;1.40;;;7.70;99.90;;;;;;5051484;28;20192;-48
2024/01/01 05:49:54;;;;;;;9.17;1.67;;;7.70;99.90;;;;;;5055268;28;20212;-48
2024/01/01 05:52:21;;;;;;;7.67;2.10;;;7.70;99.90;;;;;;5038271;28;20223;-47
2024/01/01 05:54:50;;;;;;;9.63;1.80;;;7.60;99.90;;;;;;5056272;28;20219;-48
2024/01/01 05:57:18;;;;;;;10.90;2.50;;;7.60;99.90;;;;;;5056217;28;20212;-48
2024/01/01 05:59:44;;;;;;;7.03;1.60;;;7.60;99.90;;;;;;5056094;28;20564;-48
2024/01/01 06:02:10;;;;;;;9.70;2.17;;;7.60;99.90;;;;;;5056330;28;20176;-46
2024/01/01 06:04:36;;;;;;;11.33;2.53;;;7.60;99.90;;;;;;5056257;28;20169;-47
2024/01/01 06:07:05;;;;;;;8.23;1.37;;;7.60;99.90;;;;;;5055823;28;20590;-48
2024/01/01 06:09:30;;;;;;;8.63;2.10;;;7.50;99.90;;;;;;5037942;28;20661;-46
2024/01/01 06:12:01;;;;;;;7.07;1.70;;;7.50;99.90;;;;;;5038272;28;20279;-47
2024/01/01 06:14:27;;;;;;;7.77;1.60;;;7.40;99.90;;;;;;5055701;28;20251;-48
2024/01/01 06:16:53;;;;;;;8.83;1.57;;;7.40;99.90;;;;;;5055916;28;20299;-48
2024/01/01 06:19:19;;;;;;;9.27;1.47;;;7.40;99.90;;;;;;5055774;28;20173;-47
2024/01/01 06:21:45;;;;;;;7.90;1.83;;;7.30;99.90;;;;;;5055443;28;20526;-48
2024/01/01 06:24:16;;;;;;;8.63;1.53;;;7.30;99.90;;;;;;5055725;28;20199;-46
2024/01/01 06:26:42;;;;;;;11.10;2.23;;;7.30;99.90;;;;;;5038367;28;20192;-46
2024/01/01 06:29:08;;;;;;;18.23;2.27;;;7.30;99.90;;;;;;5037643;28;20280;-46
2024/01/01 06:31:34;;;;;;;9.30;2.10;;;7.20;99.90;;;;;;5055531;28;20767;-48
2024/01/01 06:34:01;;;;;;;8.93;2.13;;;7.20;99.90;;;;;;5037641;28;20195;-48
2024/01/01 06:36:34;;;;;;;8.23;1.77;;;7.20;99.90;;;;;;5055106;28;20219;-47
2024/01/01 06:39:05;;;;;;;9.73;2.43;;;7.20;99.90;;;;;;5055513;28;20242;-47
2024/01/01 06:41:31;;;;;;;10.77;1.70;;;7.20;99.90;;;;;;5055159;28;20200;-47
2024/01/01 06:44:00;;;;;;;5.17;0.90;;;7.20;99.90;;;;;;5055142;28;20180;-46
2024/01/01 06:46:27;;;;;;;8.63;1.67;;;7.20;99.90;;;;;;5055106;28;20230;-48
2024/01/01 06:48:52;;;;;;;8.90;2.30;;;7.10;99.90;;;;;;5054963;28;20177;-47
2024/01/01 06:51:25;;;;;;;10.43;2.07;;;7.10;99.90;;;;;;5054967;28;20274;-48
2024/01/01 06:54:07;;;;;;;9.73;2.17;;;7.10;99.90;;;;;;5054843;28;20184;-48
2024/01/01 06:56:39;;;;;;;9.00;2.17;;;7.10;99.90;;;;;;5037184;28;20561;-47
2024/01/01 06:59:05;;;;;;;9.57;1.70;;;7.10;99.90;;;;;;5037199;28;20206;-48
2024/01/01 07:01:31;;;;;;;7.63;2.20;;;7.10;99.90;;;;;;5055211;28;20226;-47
2024/01/01 07:04:02;;;;;;;8.13;1.83;;;7.10;99.90;;;;;;5037078;28;20695;-48
2024/01/01 07:06:28;;;;;;;6.40;2.50;;;7.10;99.90;;;;;;5054504;28;20207;-47
2024/01/01 07:08:54;;;;;;;11.93;1.53;;;7.00;99.90;;;;;;5054708;28;20188;-47
2024/01/01 07:11:19;;;;;;;13.17;1.97;;;7.00;99.90;;;;;;5036834;28;20231;-48
2024/01/01 07:13:45;;;;;;;11.77;2.27;;;7.00;99.90;;;;;;5055301;28;20184;-47
2024/01/01 07:16:12;;;;;;;4.43;1.10;;;7.00;99.90;;;;;;5036719;28;20672;-48
2024/01/01 07:18:54;;;;;;;3.80;1.10;;;7.00;99.90;;;;;;5053294;28;20236;-48
2024/01/01 07:21:20;;;;;;;8.00;1.57;;;7.00;99.90;;;;;;5050897;28;20303;-49
2024/01/01 07:23:46;;;;;;;2.37;0.83;;;7.00;99.90;;;;;;5054289;28;20259;-49
2024/01/01 07:26:11;;;;;;;2.57;0.77;;;7.00;99.90;;;;;;5054612;28;20176;-48
2024/01/01 07:28:37;;;;;;;8.63;2.10;;;7.00;99.90;;;;;;5054309;28;20184;-47
2024/01/01 07:31:06;;;;;;;5.17;1.10;;;7.00;99.90;;;;;;5054271;28;20656;-47
2024/01/01 07:33:38;;;;;;;6.80;1.70;;;7.00;99.90;;;;;;5036747;28;20521;-49
2024/01/01 07:36:11;;;;;;;5.47;1.03;;;7.00;99.90;;;;;;5036156;28;20200;-48
2024/01/01 07:38:41;;;;;;;4.50;0.83;;;7.00;99.90;;;;;;5053964;28;20184;-47
2024/01/01 07:41:10;;;;;;;3.00;0.83;;;6.90;99.90;;;;;;5053194;28;20289;-47
2024/01/01 07:43:48;;;;;;;0.93;0.63;;;6.90;99.90;;;;;;5053734;28;20176;-50
2024/01/01 07:46:14;;;;;;;2.23;1.10;;;6.90;99.90;;;;;;5053994;28;20180;-48
2024/01/01 07:48:40;;;;;;;3.07;1.27;;;6.90;99.90;;;;;;5053972;28;20181;-48
2024/01/01 07:51:07;;;;;;;3.20;1.10;;;6.90;99.90;;;;;;5036130;28;20204;-48
2024/01/01 07:53:33;;;;;;;2.57;0.63;;;6.90;99.90;;;;;;5035841;28;20188;-47
2024/01/01 07:56:10;;;;;;;4.07;0.87;;;6.80;99.90;;;;;;5054146;28;20652;-49
2024/01/01 07:58:39;;;;;;;6.40;1.20;;;6.80;99.90;;;;;;5054165;28;20172;-48
2024/01/01 08:01:04;;;;;;;4.60;1.00;;;6.80;99.90;;;;;;5053573;28;20219;-48
2024/01/01 08:03:30;;;;;;;1.27;0.50;;;6.80;99.90;;;;;;5037873;28;20649;-49
2024/01/01 08:05:56;;;;;;;4.17;1.30;;;6.80;99.90;;;;;;5039150;28;20322;-47
2024/01/01 08:08:21;;;;;;;3.47;1.00;;;6.90;99.90;;;;;;5056727;28;20176;-48
2024/01/01 08:11:15;;;;;;;1.47;0.73;;;6.80;99.90;;;;;;5037992;28;20685;-47
2024/01/01 08:13:40;;;;;;;3.13;1.03;;;6.80;99.90;;;;;;5054843;28;20688;-48
2024/01/01 08:16:19;;;;;;;4.37;1.30;;;6.90;99.90;;;;;;5055429;28;20179;-48
2024/01/01 08:18:47;;;;;;;3.47;1.03;;;6.90;99.90;;;;;;5053831;28;20188;-46
2024/01/01 08:21:15;;;;;;;5.33;1.37;;;6.80;99.90;;;;;;5053631;28;20223;-48
2024/01/01 08:23:43;;;;;;;1.37;0.83;;;6.90;99.90;;;;;;5053361;28;20184;-47
2024/01/01 08:26:08;;;;;;;2.60;1.00;;;6.90;99.90;;;;;;5053311;28;20184;-47
2024/01/01 08:28:34;;;;;;;2.90;0.60;;;6.90;99.90;;;;;;5035745;28;20637;-47
2024/01/01 08:31:00;;;;;;;4.00;1.00;;;6.90;99.90;;;;;;5053126;28;20259;-45
2024/01/01 08:33:33;;;;;;;5.03;1.17;;;6.90;99.90;;;;;;5035992;28;20195;-47
2024/01/01 08:35:59;;;;;;;4.27;0.90;;;6.90;99.90;;;;;;5035735;28;20188;-47
2024/01/01 08:38:25;;;;;;;5.43;0.80;;;7.00;99.90;;;;;;5035343;28;20238;-47
2024/01/01 08:40:54;;;;;;;2.63;0.97;;;7.00;99.90;;;;;;5053438;28;20212;-47
2024/01/01 08:43:20;;;;;;;1.70;0.73;;;7.00;99.90;;;;;;5053452;28;20188;-47
2024/01/01 08:45:46;;;;;;;1.23;0.60;;;7.00;99.90;;;;;;5053526;28;20190;-48
2024/01/01 08:48:25;;;;;;;3.23;0.83;;;7.00;99.90;;;;;;5053213;28;20629;-46
2024/01/01 08:50:51;;;;;;;2.80;0.70;;;7.10;99.90;;;;;;5053627;28;20652;-46
2024/01/01 08:53:18;;;;;;;2.37;0.90;;;7.00;99.90;;;;;;5053371;28;20202;-46
2024/01/01 08:55:44;;;;;;;5.20;1.23;;;7.10;99.90;;;;;;5052870;28;20193;-47
2024/01/01 08:58:10;;;;;;;2.70;0.80;;;7.10;99.90;;;;;;5052870;28;20211;-48
2024/01/01 09:00:36;;;;;;;7.73;1.07;;;7.10;99.90;;;;;;5053093;28;20196;-48
2024/01/01 09:03:02;;;;;;;3.63;0.90;;;7.10;99.90;;;;;;5036063;28;20211;-48
2024/01/01 09:08:54;;;;;;;2.40;0.83;;;7.10;99.90;;;;;;5052992;28;20172;-49
2024/01/01 09:11:20;;;;;;;2.30;0.77;;;7.20;99.90;;;;;;5035102;28;20192;-47
2024/01/01 09:13:46;;;;;;;6.30;1.20;;;7.10;99.90;;;;;;5052945;28;20183;-47
2024/01/01 09:16:14;;;;;;;3.03;1.03;;;7.10;99.90;;;;;;5035363;28;20184;-47
2024/01/01 09:18:40;;;;;;;3.63;1.13;;;7.20;99.90;;;;;;5052921;28;20550;-46
2024/01/01 09:21:16;;;;;;;7.03;1.53;;;7.20;99.90;;;;;;5034929;28;20200;-48
2024/01/01 09:23:42;;;;;;;4.73;1.40;;;7.10;99.90;;;;;;5053653;28;20164;-47
2024/01/01 09:26:11;;;;;;;2.97;1.00;;;7.20;99.90;;;;;;5057029;28;20265;-47
2024/01/01 09:28:37;;;;;;;3.37;0.97;;;7.20;99.90;;;;;;5057211;28;20184;-47
2024/01/01 09:31:04;;;;;;;3.57;1.17;;;7.20;99.90;;;;;;5038832;28;20691;-46
2024/01/01 09:33:32;;;;;;;5.93;1.70;;;7.20;99.90;;;;;;5056497;28;20715;-48
2024/01/01 09:36:02;;;;;;;3.67;0.97;;;7.20;99.90;;;;;;5056528;28;20199;-48
2024/01/01 09:38:30;;;;;;;1.53;0.47;;;7.20;99.90;;;;;;5055498;28;20622;-48
2024/01/01 09:40:56;;;;;;;3.13;1.20;;;7.30;99.90;;;;;;5056183;28;20221;-47
2024/01/01 09:44:11;;;;;;;6.10;1.53;;;7.30;99.90;;;;;;5056278;28;20192;-48
2024/01/01 09:46:40;;;;;;;4.77;1.53;;;7.30;99.90;;;;;;5056542;28;20268;-47
2024/01/01 09:49:06;;;;;;;4.93;1.30;;;7.30;99.90;;;;;;5056215;28;20183;-47
2024/01/01 09:55:01;;;;;;;7.13;1.80;;;7.30;99.90;;;;;;5050739;28;20218;-49
2024/01/01 09:57:26;;;;;;;3.60;1.10;;;7.40;99.90;;;;;;5056264;28;20212;-47
2024/01/01 09:59:52;;;;;;;5.53;1.00;;;7.40;99.90;;;;;;5055922;28;20539;-48
2024/01/01 10:05:41;;;;;;;3.30;0.73;;;7.40;99.90;;;;;;5056012;28;20161;-49
2024/01/01 10:08:11;;;;;;;3.77;1.00;;;7.40;99.90;;;;;;5056357;28;20213;-48
2024/01/01 10:10:38;;;;;;;5.27;1.40;;;7.40;99.90;;;;;;5037438;28;20240;-47
2024/01/01 10:13:15;;;;;;;4.10;1.13;;;7.40;99.90;;;;;;5054463;28;20261;-48
2024/01/01 10:15:42;;;;;;;2.23;0.87;;;7.50;99.90;;;;;;5038065;28;20184;-48
2024/01/01 10:18:13;;;;;;;3.80;1.13;;;7.40;99.90;;;;;;5055923;28;20327;-48
2024/01/01 10:20:39;;;;;;;4.27;0.80;;;7.50;99.90;;;;;;5055619;28;20192;-48
2024/01/01 10:23:20;;;;;;;4.70;1.07;;;7.50;99.90;;;;;;5055865;28;20169;-47
2024/01/01 10:26:12;;;;;;;3.70;0.63;;;7.50;99.90;;;;;;5055485;28;20230;-48
2024/01/01 10:28:44;;;;;;;6.67;1.40;;;7.60;99.90;;;;;;5045299;28;20561;-49
2024/01/01 10:31:12;;;;;;;5.43;1.23;;;7.60;99.90;;;;;;5038011;28;20242;-50
2024/01/01 10:33:51;;;;;;;10.13;1.57;;;7.70;99.90;;;;;;5056429;28;20649;-47
2024/01/01 10:36:17;;;;;;;10.70;1.47;;;7.80;99.90;;;;;;5055938;28;20523;-46
2024/01/01 10:38:45;;;;;;;6.97;1.43;;;7.80;99.90;;;;;;5052089;28;20248;-47
2024/01/01 10:41:11;;;;;;;4.97;1.03;;;7.80;99.90;;;;;;5055183;28;20263;-46
2024/01/01 10:43:43;;;;;;;4.47;1.63;;;7.80;99.90;;;;;;5055449;28;20306;-48
2024/01/01 10:46:13;;;;;;;5.17;1.27;;;7.80;99.90;;;;;;5050736;28;20203;-46
2024/01/01 10:48:45;;;;;;;1.80;1.03;;;7.80;99.90;;;;;;5021524;28;20177;-47
2024/01/01 10:51:44;;;;;;;8.67;1.90;;;7.80;99.90;;;;;;5038173;28;20245;-47
2024/01/01 10:54:47;;;;;;;5.50;1.73;;;7.80;99.90;;;;;;5056086;28;20207;-47
2024/01/01 10:57:49;;;;;;;8.00;2.00;;;7.80;99.90;;;;;;5023167;28;20700;-47
2024/01/01 11:00:28;;;;;;;2.60;0.87;;;7.80;99.90;;;;;;5051260;28;20212;-49
2024/01/01 11:02:54;;;;;;;7.77;1.27;;;7.80;99.90;;;;;;5054801;28;20191;-48
2024/01/01 11:05:36;;;;;;;5.07;1.23;;;7.80;99.90;;;;;;5055050;28;20276;-47
2024/01/01 11:08:02;;;;;;;2.93;0.70;;;7.80;99.90;;;;;;5055089;28;20645;-47
2024/01/01 11:11:23;;;;;;;9.40;1.87;;;7.80;99.90;;;;;;5037156;28;20688;-48
2024/01/01 11:13:53;;;;;;;6.67;1.07;;;7.80;99.90;;;;;;5054725;28;20268;-47
2024/01/01 11:16:19;;;;;;;5.10;1.20;;;7.80;99.90;;;;;;5054525;28;20257;-47
2024/01/01 11:18:48;;;;;;;9.23;1.07;;;7.80;99.90;;;;;;5054867;28;20704;-48
2024/01/01 11:21:30;;;;;;;5.37;1.20;;;7.80;99.90;;;;;;5054493;28;20645;-46
2024/01/01 11:24:01;;;;;;;5.07;0.93;;;7.80;99.90;;;;;;5054798;28;20272;-47
2024/01/01 11:26:34;;;;;;;6.13;1.53;;;7.80;99.90;;;;;;5054727;28;20251;-47
2024/01/01 11:29:26;;;;;;;8.53;1.70;;;7.90;99.90;;;;;;5055242;28;20179;-47
2024/01/01 11:35:16;;;;;;;3.63;0.97;;;7.90;99.90;;;;;;5054374;28;20216;-47
2024/01/01 11:37:48;;;;;;;7.77;1.40;;;7.80;99.90;;;;;;5054082;28;20246;-47
2024/01/01 11:40:14;;;;;;;3.90;1.40;;;7.90;99.90;;;;;;5036907;28;20293;-47
2024/01/01 11:42:41;;;;;;;6.47;1.47;;;7.90;99.90;;;;;;5055040;28;20230;-48
2024/01/01 11:45:20;;;;;;;6.73;1.07;;;7.90;99.90;;;;;;5054345;28;20193;-47
2024/01/01 11:47:48;;;;;;;14.63;1.33;;;7.80;99.90;;;;;;5050239;28;20196;-46
2024/01/01 11:50:14;;;;;;;4.57;1.60;;;7.90;99.90;;;;;;5053987;28;20204;-47
2024/01/01 11:56:09;;;;;;;5.43;1.73;;;7.90;99.90;;;;;;5053966;28;20642;-47
2024/01/01 11:58:34;;;;;;;4.27;1.47;;;7.90;99.90;;;;;;5054075;28;20605;-46
2024/01/01 12:01:23;;;;;;;6.50;1.07;;;7.90;99.90;;;;;;5054114;28;20208;-47
2024/01/01 12:04:02;;;;;;;15.60;2.37;;;7.90;99.90;;;;;;5053750;28;20209;-47
2024/01/01 12:06:31;;;;;;;5.37;1.30;;;8.00;99.90;;;;;;5053864;28;20200;-47
2024/01/01 12:09:11;;;;;;;7.60;1.47;;;8.00;99.90;;;;;;5053689;28;20648;-47
2024/01/01 12:11:43;;;;;;;7.83;1.83;;;7.90;99.90;;;;;;5053580;28;20288;-47
2024/01/01 12:14:09;;;;;;;6.00;1.70;;;8.00;99.90;;;;;;5054255;28;20242;-47
2024/01/01 12:16:42;;;;;;;5.80;1.33;;;8.00;99.90;;;;;;5055094;28;20211;-46
2024/01/01 12:19:12;;;;;;;9.13;1.90;;;8.00;99.90;;;;;;5049332;28;20249;-48
2024/01/01 12:21:43;;;;;;;9.17;2.13;;;8.00;99.90;;;;;;5056250;28;20685;-47
2024/01/01 12:24:19;;;;;;;13.20;2.40;;;8.00;99.90;;;;;;5036663;28;20174;-48
2024/01/01 12:26:48;;;;;;;5.17;1.23;;;8.00;99.90;;;;;;5053713;28;20156;-46
2024/01/01 12:29:21;;;;;;;10.73;2.33;;;8.00;99.90;;;;;;5036234;28;20663;-49
2024/01/01 12:31:53;;;;;;;11.13;2.47;;;8.00;99.90;;;;;;5053348;28;20539;-46
2024/01/01 12:34:20;;;;;;;9.70;2.20;;;8.00;99.90;;;;;;5053566;28;20168;-47
2024/01/01 12:36:48;;;;;;;11.73;1.53;;;8.00;99.90;;;;;;5053124;28;20226;-47
2024/01/01 12:39:26;;;;;;;3.90;1.03;;;8.10;99.90;;;;;;5035756;28;20182;-48
2024/01/01 12:41:52;;;;;;;15.80;2.77;;;8.10;99.90;;;;;;5053572;28;20203;-47
2024/01/01 12:44:18;;;;;;;12.17;2.40;;;8.10;99.90;;;;;;5053240;28;20574;-49
2024/01/01 12:46:43;;;;;;;6.73;1.83;;;8.10;99.90;;;;;;5053379;28;20254;-47
2024/01/01 12:49:14;;;;;;;9.87;2.07;;;8.10;99.90;;;;;;5053666;28;20182;-47
2024/01/01 12:51:45;;;;;;;12.63;3.27;;;8.10;99.90;;;;;;5053700;28;20228;-48
2024/01/01 12:54:13;;;;;;;9.50;2.17;;;8.10;99.90;;;;;;5052979;28;20211;-48
2024/01/01 12:56:39;;;;;;;13.33;2.50;;;8.10;99.90;;;;;;5053600;28;20200;-47
2024/01/01 12:59:09;;;;;;;17.07;2.47;;;8.10;99.90;;;;;;5057700;28;20172;-45
2024/01/01 13:01:36;;;;;;;17.53;2.90;;;8.10;99.90;;;;;;5058383;28;20208;-43
2024/01/01 13:04:02;;;;;;;15.47;2.83;;;8.10;99.90;;;;;;5057608;28;20628;-41
2024/01/01 13:06:29;;;;;;;11.97;3.23;;;8.10;99.90;;;;;;5057289;28;20189;-43
2024/01/01 13:08:55;;;;;;;18.93;2.50;;;8.10;99.90;;;;;;5057180;28;20178;-43
2024/01/01 13:11:20;;;;;;;9.43;2.37;;;8.00;99.90;;;;;;5056963;28;20196;-43
2024/01/01 13:13:48;;;;;;;15.70;2.53;;;8.00;99.90;;;;;;5056917;28;20176;-42
2024/01/01 13:16:15;;;;;;;16.17;2.90;;;8.00;99.90;;;;;;5056891;28;20634;-42
2024/01/01 13:18:42;;;;;;;13.93;2.90;;;8.00;99.90;;;;;;5057227;28;20198;-43
2024/01/01 13:21:08;;;;;;;14.40;3.17;;;8.00;99.90;;;;;;5056785;28;20229;-43
2024/01/01 13:23:38;;;;;;;16.03;2.23;;;8.00;99.90;;;;;;5056869;28;20182;-42
2024/01/01 13:26:05;;;;;;;15.30;2.53;;;8.00;99.90;;;;;;5057013;28;20223;-44